Time;durP1;ratioP1;P1;durP2;ratioP2;P2;SDS_P1;SDS_P2;PMS_P1;PMS_P2;Temp;Humidity;BMP_temperature;BMP_pressure;BME280_temperature;BME280_humidity;BME280_pressure;Samples;Min_cycle;Max_cycle;Signal;HPM_P1;HPM_P2
2023/08/26 00:00:41;;;;;;;10.15;7.57;;;21.10;99.90;;;;;;5008695;28;20058;-40
2023/08/26 00:03:10;;;;;;;11.40;7.43;;;21.10;99.90;;;;;;5010379;28;20054;-40
2023/08/26 00:05:38;;;;;;;10.60;8.32;;;21.10;99.90;;;;;;5009348;28;20092;-37
2023/08/26 00:08:05;;;;;;;11.23;7.78;;;21.10;99.90;;;;;;5009163;28;20573;-39
2023/08/26 00:10:32;;;;;;;11.90;8.20;;;21.00;99.90;;;;;;5008823;28;20050;-40
2023/08/26 00:13:00;;;;;;;15.48;8.55;;;21.00;99.90;;;;;;5008723;28;20088;-40
2023/08/26 00:15:27;;;;;;;12.50;8.52;;;21.00;99.90;;;;;;5009361;28;20646;-38
2023/08/26 00:17:55;;;;;;;11.35;8.25;;;20.90;99.90;;;;;;5007942;28;20046;-39
2023/08/26 00:20:23;;;;;;;12.43;8.50;;;21.00;99.90;;;;;;5015607;28;20072;-39
2023/08/26 00:22:50;;;;;;;12.98;9.32;;;21.00;99.90;;;;;;5028582;28;20050;-39
2023/08/26 00:25:18;;;;;;;13.13;8.45;;;21.00;99.90;;;;;;5015007;28;20538;-38
2023/08/26 00:27:45;;;;;;;14.07;8.73;;;21.10;99.90;;;;;;5021475;28;20049;-39
2023/08/26 00:30:13;;;;;;;11.93;8.05;;;21.10;99.90;;;;;;5017047;28;20050;-40
2023/08/26 00:32:41;;;;;;;10.77;7.65;;;21.10;99.90;;;;;;5010307;28;20159;-40
2023/08/26 00:35:11;;;;;;;14.88;7.78;;;21.10;99.90;;;;;;5012438;28;20403;-38
2023/08/26 00:37:39;;;;;;;12.90;7.75;;;21.10;99.90;;;;;;5011176;28;20511;-36
2023/08/26 00:40:07;;;;;;;14.95;9.30;;;21.10;99.90;;;;;;5010962;28;20049;-40
2023/08/26 00:42:36;;;;;;;11.32;8.52;;;21.10;99.90;;;;;;5015122;28;20045;-40
2023/08/26 00:45:07;;;;;;;16.13;8.90;;;21.00;99.90;;;;;;5011823;28;20049;-41
2023/08/26 00:47:37;;;;;;;11.27;8.93;;;21.00;99.90;;;;;;5015683;28;20373;-40
2023/08/26 00:50:05;;;;;;;11.85;8.63;;;20.90;99.90;;;;;;5015487;28;20038;-41
2023/08/26 00:52:35;;;;;;;11.60;8.70;;;20.90;99.90;;;;;;5020547;28;20053;-40
2023/08/26 00:55:05;;;;;;;16.13;8.77;;;20.90;99.90;;;;;;5011399;28;20058;-40
2023/08/26 00:57:32;;;;;;;10.30;8.43;;;20.90;99.90;;;;;;5016501;28;20072;-40
2023/08/26 00:59:59;;;;;;;11.50;8.90;;;20.90;99.90;;;;;;5006543;28;20346;-40
2023/08/26 01:02:27;;;;;;;12.38;8.50;;;20.80;99.90;;;;;;5010791;28;20057;-40
2023/08/26 01:04:55;;;;;;;13.73;9.60;;;20.80;99.90;;;;;;5010787;28;20498;-40
2023/08/26 01:07:22;;;;;;;15.35;10.35;;;20.70;99.90;;;;;;5008620;28;20049;-39
2023/08/26 01:09:50;;;;;;;15.27;9.75;;;20.70;99.90;;;;;;5021218;28;20060;-40
2023/08/26 01:12:33;;;;;;;12.25;8.98;;;20.60;99.90;;;;;;5027570;28;20505;-40
2023/08/26 01:15:06;;;;;;;11.43;8.65;;;20.60;99.90;;;;;;5018461;28;20037;-38
2023/08/26 01:17:34;;;;;;;13.52;9.95;;;20.60;99.90;;;;;;5029556;28;20050;-41
2023/08/26 01:20:05;;;;;;;12.13;9.10;;;20.60;99.90;;;;;;5026074;28;20476;-40
2023/08/26 01:22:34;;;;;;;13.93;9.02;;;20.60;99.90;;;;;;5015627;28;20526;-40
2023/08/26 01:25:02;;;;;;;14.50;9.48;;;20.60;99.90;;;;;;5014700;28;20046;-40
2023/08/26 01:27:29;;;;;;;13.30;9.82;;;20.70;99.90;;;;;;5011164;28;20049;-39
2023/08/26 01:29:57;;;;;;;16.70;9.25;;;20.70;99.90;;;;;;5021878;28;20112;-40
2023/08/26 01:32:52;;;;;;;11.73;9.27;;;20.70;99.90;;;;;;5010506;28;20549;-40
2023/08/26 01:35:25;;;;;;;13.32;8.75;;;20.70;99.90;;;;;;5012355;28;20061;-39
2023/08/26 01:37:54;;;;;;;14.52;9.52;;;20.70;99.90;;;;;;5011245;28;20143;-40
2023/08/26 01:40:23;;;;;;;14.10;9.82;;;20.80;99.90;;;;;;5017331;28;20422;-41
2023/08/26 01:42:52;;;;;;;15.18;9.82;;;20.80;99.90;;;;;;5009399;28;20099;-41
2023/08/26 01:45:19;;;;;;;11.65;8.68;;;20.80;99.90;;;;;;5010939;28;20046;-40
2023/08/26 01:47:48;;;;;;;15.65;9.95;;;20.80;99.90;;;;;;5015870;28;20161;-40
2023/08/26 01:50:15;;;;;;;12.40;7.90;;;20.80;99.90;;;;;;5009650;28;20121;-40
2023/08/26 01:52:43;;;;;;;12.93;9.88;;;20.80;99.90;;;;;;5008709;28;20057;-41
2023/08/26 01:55:10;;;;;;;13.73;8.13;;;20.80;99.90;;;;;;5017342;28;20426;-39
2023/08/26 01:57:38;;;;;;;11.57;8.68;;;20.80;99.90;;;;;;5009069;28;20083;-37
2023/08/26 02:00:06;;;;;;;12.00;7.80;;;20.80;99.90;;;;;;5014935;28;20096;-39
2023/08/26 02:02:41;;;;;;;11.45;7.82;;;20.80;99.90;;;;;;5000211;28;20046;-39
2023/08/26 02:05:08;;;;;;;11.07;7.63;;;20.80;99.90;;;;;;5021698;28;20123;-39
2023/08/26 02:07:36;;;;;;;10.82;7.47;;;20.70;99.90;;;;;;5010643;28;20066;-38
2023/08/26 02:10:04;;;;;;;11.48;7.47;;;20.70;99.90;;;;;;5018233;28;20046;-41
2023/08/26 02:12:32;;;;;;;10.45;7.38;;;20.70;99.90;;;;;;5021362;28;20058;-39
2023/08/26 02:15:01;;;;;;;9.85;6.68;;;20.60;99.90;;;;;;5019047;28;20493;-39
2023/08/26 02:17:29;;;;;;;8.73;6.45;;;20.60;99.90;;;;;;5011805;28;20050;-38
2023/08/26 02:19:57;;;;;;;13.20;7.20;;;20.50;99.90;;;;;;5007495;28;20065;-39
2023/08/26 02:22:24;;;;;;;9.70;6.38;;;20.40;99.90;;;;;;5009930;28;20046;-40
2023/08/26 02:24:51;;;;;;;11.38;7.10;;;20.40;99.90;;;;;;5009824;28;20073;-40
2023/08/26 02:27:19;;;;;;;10.05;7.53;;;20.30;99.90;;;;;;5012835;28;20045;-40
2023/08/26 02:29:46;;;;;;;10.63;6.97;;;20.30;99.90;;;;;;5009619;28;20073;-39
2023/08/26 02:32:14;;;;;;;10.82;7.28;;;20.20;99.90;;;;;;5008562;28;20049;-40
2023/08/26 02:34:41;;;;;;;8.30;6.32;;;20.30;99.90;;;;;;5002915;28;20112;-41
2023/08/26 02:37:09;;;;;;;9.32;7.05;;;20.20;99.90;;;;;;5000833;28;20156;-40
2023/08/26 02:39:36;;;;;;;9.27;7.18;;;20.10;99.90;;;;;;5004325;28;20100;-39
2023/08/26 02:42:04;;;;;;;10.25;6.97;;;20.00;99.90;;;;;;5005674;28;20053;-41
2023/08/26 02:44:33;;;;;;;10.13;6.70;;;20.10;99.90;;;;;;5007804;28;20049;-40
2023/08/26 02:47:00;;;;;;;9.32;7.13;;;20.00;99.90;;;;;;5003517;28;20156;-40
2023/08/26 02:49:29;;;;;;;9.95;7.28;;;20.00;99.90;;;;;;5007351;28;20060;-40
2023/08/26 02:51:56;;;;;;;11.07;7.35;;;19.90;99.90;;;;;;5008442;28;20061;-40
2023/08/26 02:54:24;;;;;;;9.13;6.55;;;19.90;99.90;;;;;;5008494;28;20069;-40
2023/08/26 02:56:52;;;;;;;9.88;6.82;;;19.80;99.90;;;;;;5000120;28;20049;-40
2023/08/26 02:59:21;;;;;;;9.73;6.30;;;19.70;99.90;;;;;;5007599;28;20057;-39
2023/08/26 03:02:03;;;;;;;8.63;6.30;;;19.70;99.90;;;;;;5009596;28;20049;-40
2023/08/26 03:04:33;;;;;;;9.57;6.93;;;19.60;99.90;;;;;;5005052;28;20049;-40
2023/08/26 03:07:01;;;;;;;10.50;6.75;;;19.60;99.90;;;;;;5009037;28;20045;-38
2023/08/26 03:09:29;;;;;;;9.77;7.30;;;19.60;99.90;;;;;;5009378;28;20081;-40
2023/08/26 03:11:57;;;;;;;9.63;6.85;;;19.60;99.90;;;;;;5009282;28;20123;-40
2023/08/26 03:14:25;;;;;;;9.32;6.88;;;19.50;99.90;;;;;;5001362;28;20057;-40
2023/08/26 03:16:52;;;;;;;9.68;7.03;;;19.50;99.90;;;;;;5013727;28;20616;-40
2023/08/26 03:19:21;;;;;;;9.27;6.85;;;19.60;99.90;;;;;;5021396;28;20058;-41
2023/08/26 03:21:49;;;;;;;11.40;7.25;;;19.50;99.90;;;;;;5019209;28;20077;-40
2023/08/26 03:24:17;;;;;;;9.73;6.63;;;19.50;99.90;;;;;;5012886;28;20128;-40
2023/08/26 03:26:47;;;;;;;9.55;6.00;;;19.50;99.90;;;;;;5005467;28;20049;-40
2023/08/26 03:29:14;;;;;;;10.57;6.47;;;19.50;99.90;;;;;;5007953;28;20065;-38
2023/08/26 03:31:45;;;;;;;10.77;7.00;;;19.60;99.90;;;;;;5009773;28;20104;-40
2023/08/26 03:34:16;;;;;;;9.73;6.50;;;19.60;99.90;;;;;;5007087;28;20214;-39
2023/08/26 03:36:44;;;;;;;10.25;6.75;;;19.60;99.90;;;;;;5008006;28;20125;-39
2023/08/26 03:39:12;;;;;;;8.38;6.40;;;19.60;99.90;;;;;;5007720;28;20057;-39
2023/08/26 03:41:40;;;;;;;13.32;7.35;;;19.60;99.90;;;;;;5013810;28;20057;-35
2023/08/26 03:44:07;;;;;;;9.82;6.28;;;19.50;99.90;;;;;;5007731;28;20142;-39
2023/08/26 03:46:34;;;;;;;9.18;6.00;;;19.60;99.90;;;;;;5003834;28;20052;-39
2023/08/26 03:49:02;;;;;;;11.13;6.50;;;19.60;99.90;;;;;;5001951;28;20538;-39
2023/08/26 03:51:30;;;;;;;12.15;6.13;;;19.50;99.90;;;;;;5010942;28;20379;-40
2023/08/26 03:53:57;;;;;;;10.55;6.57;;;19.50;99.90;;;;;;5017914;28;20050;-40
2023/08/26 03:56:24;;;;;;;11.63;6.47;;;19.50;99.90;;;;;;5009319;28;20045;-38
2023/08/26 03:58:56;;;;;;;8.80;6.53;;;19.50;99.90;;;;;;5007339;28;20121;-39
2023/08/26 04:01:23;;;;;;;8.43;5.90;;;19.50;99.90;;;;;;5009565;28;20537;-39
2023/08/26 04:03:52;;;;;;;15.35;6.75;;;19.50;99.90;;;;;;5010475;28;20167;-40
2023/08/26 04:06:19;;;;;;;12.32;6.38;;;19.50;99.90;;;;;;5018193;28;20077;-40
2023/08/26 04:08:47;;;;;;;9.90;5.95;;;19.50;99.90;;;;;;5024464;28;20048;-40
2023/08/26 04:11:16;;;;;;;9.63;6.68;;;19.50;99.90;;;;;;5023858;28;20042;-39
2023/08/26 04:13:47;;;;;;;9.88;6.25;;;19.50;99.90;;;;;;5022329;28;20045;-39
2023/08/26 04:16:19;;;;;;;9.23;6.20;;;19.50;99.90;;;;;;5013116;28;20064;-37
2023/08/26 04:18:47;;;;;;;;;;;19.50;99.90;;;;;;5017302;28;20057;-40
2023/08/26 04:21:16;;;;;;;8.80;6.07;;;19.50;99.90;;;;;;5011995;28;19921;-40
2023/08/26 04:23:43;;;;;;;10.45;7.25;;;19.50;99.90;;;;;;5011803;28;20046;-39
2023/08/26 04:26:10;;;;;;;9.90;6.63;;;19.50;99.90;;;;;;5010952;28;20104;-40
2023/08/26 04:28:38;;;;;;;10.20;7.30;;;19.50;99.90;;;;;;5010924;28;20053;-39
2023/08/26 04:31:07;;;;;;;10.70;6.72;;;19.50;99.90;;;;;;5007009;28;20449;-38
2023/08/26 04:33:37;;;;;;;;;;;19.50;99.90;;;;;;5010100;28;20377;-39
2023/08/26 04:36:05;;;;;;;8.98;6.20;;;19.50;99.90;;;;;;5017333;28;19925;-40
2023/08/26 04:38:32;;;;;;;9.57;5.95;;;19.60;99.90;;;;;;5012483;28;20048;-38
2023/08/26 04:41:01;;;;;;;9.05;5.57;;;19.60;99.90;;;;;;5011534;28;20538;-39
2023/08/26 04:43:28;;;;;;;9.48;5.90;;;19.60;99.90;;;;;;5012401;28;20052;-40
2023/08/26 04:45:55;;;;;;;8.98;6.05;;;19.60;99.90;;;;;;5009901;28;20057;-40
2023/08/26 04:48:24;;;;;;;10.75;6.20;;;19.60;99.90;;;;;;5016666;28;20113;-38
2023/08/26 04:50:52;;;;;;;9.90;6.30;;;19.60;99.90;;;;;;5007254;28;20046;-41
2023/08/26 04:53:20;;;;;;;9.45;5.75;;;19.70;99.90;;;;;;5007542;28;20053;-41
2023/08/26 04:55:51;;;;;;;12.23;6.65;;;19.70;99.90;;;;;;5015706;28;20050;-36
2023/08/26 04:58:19;;;;;;;7.55;5.68;;;19.70;99.90;;;;;;5004445;28;20065;-39
2023/08/26 05:00:46;;;;;;;7.72;5.53;;;19.70;99.90;;;;;;5014864;28;20073;-40
2023/08/26 05:03:14;;;;;;;9.77;6.05;;;19.80;99.90;;;;;;5016251;28;20096;-41
2023/08/26 05:05:42;;;;;;;10.18;7.80;;;19.90;99.90;;;;;;5021749;28;20042;-38
2023/08/26 05:08:09;;;;;;;13.73;7.93;;;19.90;99.90;;;;;;5017809;28;20070;-39
2023/08/26 05:10:39;;;;;;;10.48;7.40;;;19.90;99.90;;;;;;5016197;28;20042;-39
2023/08/26 05:13:07;;;;;;;9.77;7.05;;;19.90;99.90;;;;;;5010662;28;20042;-40
2023/08/26 05:15:34;;;;;;;10.45;6.75;;;19.90;99.90;;;;;;5022667;28;20069;-37
2023/08/26 05:18:03;;;;;;;10.77;7.20;;;19.90;99.90;;;;;;5014913;28;20349;-40
2023/08/26 05:20:30;;;;;;;11.98;8.90;;;20.00;99.90;;;;;;5012397;28;20054;-38
2023/08/26 05:22:58;;;;;;;12.00;8.55;;;20.00;99.90;;;;;;5018462;28;20057;-39
2023/08/26 05:25:25;;;;;;;11.40;8.48;;;20.10;99.90;;;;;;5010400;28;20041;-40
2023/08/26 05:27:53;;;;;;;10.70;8.00;;;20.10;99.90;;;;;;5009656;28;20046;-38
2023/08/26 05:30:21;;;;;;;14.52;10.82;;;20.10;99.90;;;;;;5009921;28;20238;-37
2023/08/26 05:32:53;;;;;;;;;;;20.20;99.90;;;;;;5008237;28;20137;-38
2023/08/26 05:35:20;;;;;;;9.48;7.00;;;20.20;99.90;;;;;;5012170;28;19989;-39
2023/08/26 05:37:47;;;;;;;9.57;6.65;;;20.10;99.90;;;;;;5005860;28;20047;-43
2023/08/26 05:40:16;;;;;;;9.82;7.00;;;20.10;99.90;;;;;;5021190;28;20375;-37
2023/08/26 05:42:44;;;;;;;10.23;6.90;;;20.10;99.90;;;;;;5013764;28;20057;-41
2023/08/26 05:45:11;;;;;;;10.65;7.25;;;20.10;99.90;;;;;;5012723;28;20145;-37
2023/08/26 05:47:39;;;;;;;10.52;6.78;;;20.10;99.90;;;;;;5015877;28;20038;-38
2023/08/26 05:50:06;;;;;;;11.15;6.60;;;20.00;99.90;;;;;;5014581;28;20109;-37
2023/08/26 05:52:34;;;;;;;9.15;6.40;;;19.90;99.90;;;;;;5011938;28;20130;-40
2023/08/26 05:55:01;;;;;;;8.70;6.03;;;20.00;99.90;;;;;;5009156;28;20061;-39
2023/08/26 05:57:29;;;;;;;9.00;6.72;;;20.00;99.90;;;;;;5010981;28;20045;-38
2023/08/26 05:59:56;;;;;;;10.38;7.28;;;20.10;99.90;;;;;;5009380;28;20046;-39
2023/08/26 06:02:23;;;;;;;10.15;6.35;;;20.00;99.90;;;;;;5007386;28;20046;-40
2023/08/26 06:04:51;;;;;;;12.00;7.63;;;20.00;99.90;;;;;;5010701;28;20034;-40
2023/08/26 06:07:19;;;;;;;11.85;6.32;;;20.10;99.90;;;;;;5007756;28;20065;-41
2023/08/26 06:09:47;;;;;;;9.75;6.82;;;20.10;99.90;;;;;;5010616;28;20046;-40
2023/08/26 06:12:14;;;;;;;9.57;6.50;;;20.10;99.90;;;;;;5021818;28;20422;-40
2023/08/26 06:14:41;;;;;;;10.82;7.00;;;20.20;99.90;;;;;;5028296;28;20041;-38
2023/08/26 06:17:09;;;;;;;8.07;6.15;;;20.20;99.90;;;;;;5014451;28;20054;-41
2023/08/26 06:19:36;;;;;;;9.57;6.35;;;20.30;99.90;;;;;;5011541;28;20454;-40
2023/08/26 06:22:04;;;;;;;10.25;6.70;;;20.40;99.90;;;;;;5014784;28;20370;-41
2023/08/26 06:24:32;;;;;;;9.73;6.28;;;20.40;99.90;;;;;;5009744;28;20061;-40
2023/08/26 06:26:59;;;;;;;9.32;6.78;;;20.50;99.90;;;;;;5014975;28;20049;-39
2023/08/26 06:29:26;;;;;;;10.48;6.40;;;20.60;99.90;;;;;;5017143;28;20399;-40
2023/08/26 06:31:54;;;;;;;9.02;6.22;;;20.60;99.90;;;;;;5016678;28;20101;-39
2023/08/26 06:34:25;;;;;;;10.55;5.88;;;20.70;99.90;;;;;;5010958;28;20046;-41
2023/08/26 06:36:53;;;;;;;9.52;6.28;;;20.90;99.90;;;;;;5019273;28;20113;-39
2023/08/26 06:39:20;;;;;;;10.13;6.03;;;21.00;99.90;;;;;;5018272;28;20050;-39
2023/08/26 06:41:47;;;;;;;8.73;6.05;;;21.00;99.90;;;;;;5017564;28;20045;-39
2023/08/26 06:44:15;;;;;;;8.30;5.70;;;21.10;99.90;;;;;;5013149;28;20040;-39
2023/08/26 06:46:43;;;;;;;10.25;5.55;;;21.20;99.90;;;;;;5014710;28;20045;-38
2023/08/26 06:49:10;;;;;;;11.30;6.20;;;21.20;99.90;;;;;;5017800;28;20054;-39
2023/08/26 06:51:37;;;;;;;8.38;5.65;;;21.10;99.90;;;;;;5016402;28;20042;-39
2023/08/26 06:54:05;;;;;;;9.25;5.60;;;21.10;99.90;;;;;;5014767;28;20052;-39
2023/08/26 06:56:32;;;;;;;10.20;6.47;;;21.00;99.90;;;;;;5016634;28;20126;-39
2023/08/26 06:58:59;;;;;;;10.65;6.07;;;20.90;99.90;;;;;;5015273;28;20069;-40
2023/08/26 07:01:27;;;;;;;10.75;6.80;;;20.90;99.90;;;;;;5016717;28;20149;-40
2023/08/26 07:04:06;;;;;;;9.75;6.53;;;20.90;99.90;;;;;;5023204;28;20065;-39
2023/08/26 07:06:38;;;;;;;10.88;6.50;;;20.80;99.90;;;;;;5013088;28;20046;-39
2023/08/26 07:09:05;;;;;;;8.38;5.63;;;20.80;99.90;;;;;;5003634;28;20045;-40
2023/08/26 07:11:33;;;;;;;8.95;6.00;;;20.90;99.90;;;;;;5006876;28;20126;-40
2023/08/26 07:14:00;;;;;;;11.32;6.05;;;20.90;99.90;;;;;;5007185;28;20241;-39
2023/08/26 07:16:28;;;;;;;8.32;5.57;;;21.00;99.90;;;;;;5009465;28;20030;-39
2023/08/26 07:18:55;;;;;;;10.32;5.88;;;21.20;99.90;;;;;;5007749;28;20041;-39
2023/08/26 07:21:23;;;;;;;8.10;5.90;;;21.30;99.90;;;;;;5008477;28;20052;-40
2023/08/26 07:23:50;;;;;;;10.30;6.20;;;21.40;99.90;;;;;;5005876;28;20042;-39
2023/08/26 07:26:19;;;;;;;11.35;6.45;;;21.50;99.90;;;;;;5008297;28;20129;-39
2023/08/26 07:28:48;;;;;;;11.00;6.65;;;21.50;99.90;;;;;;5007701;28;20097;-40
2023/08/26 07:31:15;;;;;;;9.32;6.80;;;21.60;99.90;;;;;;5008764;28;20120;-39
2023/08/26 07:33:43;;;;;;;10.38;6.57;;;21.40;99.90;;;;;;5008308;28;20061;-38
2023/08/26 07:36:10;;;;;;;9.20;6.07;;;21.30;99.90;;;;;;5012073;28;20057;-40
2023/08/26 07:38:38;;;;;;;9.98;5.90;;;21.50;99.90;;;;;;5009136;28;20049;-39
2023/08/26 07:41:06;;;;;;;11.18;6.45;;;21.70;99.90;;;;;;5008113;28;20058;-39
2023/08/26 07:43:36;;;;;;;11.63;5.57;;;21.90;99.90;;;;;;5007755;28;20544;-39
2023/08/26 07:46:03;;;;;;;9.35;6.15;;;22.10;99.90;;;;;;5005256;28;20042;-39
2023/08/26 07:48:33;;;;;;;10.05;6.03;;;22.10;99.90;;;;;;5008791;28;20489;-39
2023/08/26 07:51:04;;;;;;;9.10;5.65;;;22.30;99.90;;;;;;5007381;28;20052;-39
2023/08/26 07:53:32;;;;;;;9.52;5.85;;;22.40;99.90;;;;;;5007869;28;20133;-40
2023/08/26 07:55:59;;;;;;;10.63;5.93;;;22.30;99.90;;;;;;5005877;28;20116;-40
2023/08/26 07:58:26;;;;;;;11.65;5.55;;;22.60;99.90;;;;;;5005830;28;20144;-39
2023/08/26 08:00:53;;;;;;;13.98;5.78;;;22.80;99.90;;;;;;5005834;28;20115;-37
2023/08/26 08:03:21;;;;;;;10.27;5.57;;;22.90;99.90;;;;;;5004089;28;20143;-38
2023/08/26 08:05:48;;;;;;;9.40;5.65;;;22.80;99.90;;;;;;5007193;28;20132;-37
2023/08/26 08:08:16;;;;;;;7.50;5.10;;;22.90;99.90;;;;;;5012068;28;20077;-41
2023/08/26 08:10:43;;;;;;;9.45;5.18;;;22.90;99.90;;;;;;5007089;28;20084;-39
2023/08/26 08:13:11;;;;;;;8.98;5.55;;;22.80;99.90;;;;;;5011030;28;20041;-39
2023/08/26 08:15:39;;;;;;;8.38;5.70;;;22.70;99.90;;;;;;5008117;28;20054;-39
2023/08/26 08:18:06;;;;;;;9.65;5.78;;;22.70;99.90;;;;;;5006682;28;20423;-39
2023/08/26 08:20:34;;;;;;;8.60;5.80;;;22.70;99.90;;;;;;5007310;28;20134;-40
2023/08/26 08:23:01;;;;;;;10.48;5.53;;;22.80;99.90;;;;;;5007353;28;20493;-40
2023/08/26 08:25:28;;;;;;;8.43;5.40;;;22.90;99.90;;;;;;5009374;28;20070;-39
2023/08/26 08:27:56;;;;;;;9.48;5.40;;;23.00;99.90;;;;;;5007490;28;20052;-38
2023/08/26 08:30:23;;;;;;;8.60;5.60;;;22.70;99.90;;;;;;5007569;28;20038;-39
2023/08/26 08:32:50;;;;;;;13.63;5.53;;;22.50;99.90;;;;;;5008719;28;20042;-39
2023/08/26 08:35:18;;;;;;;7.22;5.00;;;22.30;99.90;;;;;;5008614;28;20042;-38
2023/08/26 08:37:45;;;;;;;10.43;5.68;;;22.40;99.90;;;;;;5013409;28;20181;-38
2023/08/26 08:40:13;;;;;;;9.02;5.05;;;22.60;99.90;;;;;;5009623;28;20418;-38
2023/08/26 08:42:43;;;;;;;10.25;5.78;;;22.50;99.90;;;;;;5010834;28;20068;-40
2023/08/26 08:45:12;;;;;;;8.68;5.53;;;22.60;99.90;;;;;;5003696;28;20096;-39
2023/08/26 08:47:40;;;;;;;8.73;5.35;;;22.90;99.90;;;;;;5007815;28;20046;-39
2023/08/26 08:50:08;;;;;;;8.35;5.10;;;23.00;99.90;;;;;;5012511;28;20452;-38
2023/08/26 08:52:38;;;;;;;12.30;5.47;;;23.20;99.90;;;;;;5011510;28;20049;-39
2023/08/26 08:55:07;;;;;;;8.00;5.25;;;23.40;99.90;;;;;;5006256;28;20050;-39
2023/08/26 08:57:36;;;;;;;12.57;5.50;;;23.40;99.90;;;;;;5007603;28;20049;-41
2023/08/26 09:00:04;;;;;;;9.60;5.55;;;23.70;99.90;;;;;;5003037;28;20080;-38
2023/08/26 09:02:34;;;;;;;12.65;5.65;;;23.80;99.90;;;;;;5006569;28;20061;-41
2023/08/26 09:05:02;;;;;;;7.38;5.13;;;23.90;99.90;;;;;;5010607;28;20046;-41
2023/08/26 09:07:30;;;;;;;7.78;5.20;;;23.80;99.90;;;;;;5000787;28;20074;-40
2023/08/26 09:09:59;;;;;;;11.82;5.60;;;23.90;99.90;;;;;;5005503;28;20360;-39
2023/08/26 09:12:29;;;;;;;10.95;4.85;;;23.70;99.90;;;;;;5023882;28;20105;-39
2023/08/26 09:14:57;;;;;;;8.75;4.68;;;23.60;99.90;;;;;;5025150;28;20136;-40
2023/08/26 09:17:24;;;;;;;9.43;5.90;;;23.90;99.90;;;;;;5015802;28;20049;-39
2023/08/26 09:19:53;;;;;;;11.55;5.20;;;24.10;99.90;;;;;;5006675;28;20464;-40
2023/08/26 09:22:25;;;;;;;9.80;5.05;;;24.40;99.90;;;;;;5015208;28;20042;-40
2023/08/26 09:25:02;;;;;;;;;;;24.40;99.90;;;;;;5013313;28;20497;-41
2023/08/26 09:27:40;;;;;;;9.52;5.00;;;24.40;99.90;;;;;;5005604;28;19957;-38
2023/08/26 09:30:08;;;;;;;7.88;4.60;;;24.40;99.90;;;;;;5009187;28;20053;-37
2023/08/26 09:32:41;;;;;;;10.38;4.78;;;24.40;99.90;;;;;;5007872;28;20074;-40
2023/08/26 09:35:14;;;;;;;9.93;4.40;;;24.50;99.90;;;;;;5016048;28;20046;-41
2023/08/26 09:37:55;;;;;;;10.80;4.93;;;24.50;99.90;;;;;;5021227;28;21444;-41
2023/08/26 09:40:24;;;;;;;8.30;4.75;;;24.80;99.90;;;;;;5026171;28;20080;-41
2023/08/26 09:42:52;;;;;;;9.73;4.97;;;25.00;99.90;;;;;;5017161;28;20053;-40
2023/08/26 09:45:20;;;;;;;9.05;4.60;;;25.10;99.90;;;;;;5009201;28;20042;-40
2023/08/26 09:47:50;;;;;;;10.93;4.97;;;25.10;99.90;;;;;;5021526;28;20123;-40
2023/08/26 09:50:30;;;;;;;10.57;5.18;;;25.30;99.90;;;;;;5007221;28;20042;-40
2023/08/26 09:52:58;;;;;;;11.73;5.32;;;25.50;99.90;;;;;;5012978;28;20113;-41
2023/08/26 09:55:25;;;;;;;10.60;4.93;;;25.40;99.90;;;;;;5012365;28;20038;-40
2023/08/26 09:57:53;;;;;;;12.25;5.82;;;25.30;99.90;;;;;;5010878;28;20091;-40
2023/08/26 10:00:20;;;;;;;9.15;5.20;;;25.00;99.90;;;;;;5006300;28;20081;-41
2023/08/26 10:02:50;;;;;;;8.40;5.22;;;25.00;99.90;;;;;;5021603;28;20042;-41
2023/08/26 10:05:21;;;;;;;9.63;5.28;;;25.10;99.90;;;;;;5027339;28;20458;-40
2023/08/26 10:07:50;;;;;;;8.90;4.93;;;25.30;99.90;;;;;;5010113;28;20052;-40
2023/08/26 10:10:54;;;;;;;9.00;5.07;;;25.50;99.90;;;;;;5007669;28;20090;-41
2023/08/26 10:13:30;;;;;;;8.40;5.30;;;25.80;99.90;;;;;;5002955;28;20052;-41
2023/08/26 10:16:00;;;;;;;10.73;5.90;;;26.00;99.90;;;;;;5004972;28;20049;-41
2023/08/26 10:18:47;;;;;;;9.93;5.78;;;26.00;99.90;;;;;;5005028;28;20034;-40
2023/08/26 10:21:14;;;;;;;11.05;5.38;;;25.80;99.90;;;;;;5002890;28;20045;-41
2023/08/26 10:23:42;;;;;;;12.25;5.05;;;25.70;99.90;;;;;;5006621;28;20050;-39
2023/08/26 10:26:10;;;;;;;7.95;5.50;;;25.70;99.90;;;;;;5005931;28;20542;-41
2023/08/26 10:28:38;;;;;;;7.53;5.22;;;25.70;99.90;;;;;;5006361;28;20073;-40
2023/08/26 10:31:08;;;;;;;8.32;5.18;;;25.80;99.90;;;;;;5006084;28;20045;-41
2023/08/26 10:33:59;;;;;;;9.02;6.10;;;25.80;99.90;;;;;;5006629;28;20045;-41
2023/08/26 10:36:27;;;;;;;10.57;5.10;;;25.80;99.90;;;;;;4999621;28;20090;-41
2023/08/26 10:38:56;;;;;;;14.45;5.43;;;25.90;99.90;;;;;;4997243;28;20301;-42
2023/08/26 10:41:27;;;;;;;12.80;5.32;;;25.90;99.90;;;;;;5003148;28;20434;-40
2023/08/26 10:43:58;;;;;;;11.95;5.35;;;25.70;99.90;;;;;;4999870;28;20046;-41
2023/08/26 10:46:32;;;;;;;9.95;5.20;;;25.70;99.90;;;;;;5003923;28;20145;-41
2023/08/26 10:49:01;;;;;;;11.98;5.10;;;26.10;99.90;;;;;;5004209;28;20038;-41
2023/08/26 10:51:29;;;;;;;9.40;5.13;;;26.20;99.90;;;;;;5008174;28;20046;-41
2023/08/26 10:54:03;;;;;;;8.50;5.10;;;26.60;99.90;;;;;;5010354;28;20045;-41
2023/08/26 10:56:34;;;;;;;10.32;5.63;;;27.00;99.90;;;;;;5011632;28;20072;-41
2023/08/26 10:59:03;;;;;;;12.05;6.28;;;27.30;99.90;;;;;;5010746;28;20054;-42
2023/08/26 11:01:36;;;;;;;6.93;5.32;;;27.10;99.90;;;;;;5004173;28;20184;-41
2023/08/26 11:04:05;;;;;;;10.50;4.90;;;27.00;99.90;;;;;;5008050;28;20340;-41
2023/08/26 11:06:39;;;;;;;7.68;5.05;;;27.20;99.90;;;;;;5006810;28;20038;-42
2023/08/26 11:09:08;;;;;;;10.88;6.13;;;27.30;99.90;;;;;;5007899;28;20090;-41
2023/08/26 11:11:35;;;;;;;9.77;5.18;;;27.50;99.90;;;;;;5006692;28;20041;-41
2023/08/26 11:14:02;;;;;;;9.27;5.03;;;27.40;99.90;;;;;;5007796;28;20056;-41
2023/08/26 11:16:30;;;;;;;10.27;5.25;;;26.90;99.90;;;;;;5007724;28;20049;-41
2023/08/26 11:18:57;;;;;;;14.27;5.88;;;26.80;99.90;;;;;;5004287;28;20062;-42
2023/08/26 11:21:26;;;;;;;12.88;5.95;;;27.30;99.90;;;;;;5007572;28;20046;-42
2023/08/26 11:23:54;;;;;;;10.70;5.22;;;27.40;99.90;;;;;;5008018;28;20050;-41
2023/08/26 11:26:23;;;;;;;10.10;5.15;;;27.40;99.90;;;;;;5008484;28;20088;-41
2023/08/26 11:28:51;;;;;;;10.80;5.57;;;27.70;99.90;;;;;;5007699;28;20095;-41
2023/08/26 11:31:18;;;;;;;10.48;5.95;;;27.70;99.90;;;;;;5006752;28;20419;-41
2023/08/26 11:33:48;;;;;;;7.65;4.95;;;27.60;99.90;;;;;;5007879;28;20038;-42
2023/08/26 11:36:20;;;;;;;11.18;6.03;;;27.40;99.90;;;;;;5007871;28;20045;-43
2023/08/26 11:38:47;;;;;;;9.25;5.88;;;27.50;99.90;;;;;;5004728;28;20045;-42
2023/08/26 11:41:15;;;;;;;10.63;5.55;;;27.50;99.90;;;;;;5007715;28;20046;-42
2023/08/26 11:43:42;;;;;;;9.65;5.68;;;27.80;99.90;;;;;;5007697;28;20065;-42
2023/08/26 11:46:10;;;;;;;11.15;5.93;;;28.10;99.90;;;;;;5006354;28;20065;-43
2023/08/26 11:48:38;;;;;;;9.07;5.65;;;28.20;99.90;;;;;;4999661;28;20045;-41
2023/08/26 11:51:06;;;;;;;8.32;5.38;;;27.70;99.90;;;;;;4997632;28;20445;-44
2023/08/26 11:53:36;;;;;;;8.65;5.95;;;27.60;99.90;;;;;;5007368;28;20033;-42
2023/08/26 11:56:05;;;;;;;7.40;5.78;;;27.60;99.90;;;;;;5001799;28;20044;-42
2023/08/26 11:58:36;;;;;;;11.35;6.03;;;27.20;99.90;;;;;;5007632;28;20037;-41
2023/08/26 12:01:07;;;;;;;11.90;6.30;;;27.20;99.90;;;;;;5013076;28;20078;-42
2023/08/26 12:03:42;;;;;;;10.70;5.90;;;27.20;99.90;;;;;;5006211;28;20083;-43
2023/08/26 12:06:14;;;;;;;9.23;5.50;;;27.40;99.90;;;;;;5002425;28;20304;-42
2023/08/26 12:08:42;;;;;;;10.68;5.60;;;27.60;99.90;;;;;;5021231;28;20069;-43
2023/08/26 12:11:10;;;;;;;8.05;6.00;;;28.40;99.90;;;;;;5006634;28;20065;-43
2023/08/26 12:13:39;;;;;;;10.90;5.47;;;28.70;99.90;;;;;;5013755;28;20058;-45
2023/08/26 12:16:07;;;;;;;9.10;5.82;;;29.30;99.90;;;;;;5013347;28;20073;-43
2023/08/26 12:18:35;;;;;;;11.90;6.35;;;29.40;99.90;;;;;;5012057;28;20092;-41
2023/08/26 12:21:02;;;;;;;7.93;5.78;;;29.10;99.90;;;;;;5008403;28;20058;-42
2023/08/26 12:23:30;;;;;;;8.52;6.03;;;29.90;99.90;;;;;;5010329;28;20046;-43
2023/08/26 12:25:58;;;;;;;8.82;5.57;;;30.50;99.90;;;;;;5007896;28;20789;-44
2023/08/26 12:28:25;;;;;;;15.70;5.93;;;30.30;99.90;;;;;;5010187;28;20074;-44
2023/08/26 12:30:53;;;;;;;9.70;5.90;;;29.60;99.90;;;;;;5009631;28;20038;-44
2023/08/26 12:33:21;;;;;;;12.02;6.57;;;28.70;99.90;;;;;;5010626;28;20379;-44
2023/08/26 12:35:54;;;;;;;10.13;6.28;;;27.90;99.90;;;;;;5008091;28;20041;-42
2023/08/26 12:38:23;;;;;;;9.98;6.15;;;27.80;99.90;;;;;;5007817;28;20060;-44
2023/08/26 12:40:50;;;;;;;9.15;6.43;;;27.50;99.90;;;;;;5007850;28;20164;-43
2023/08/26 12:43:18;;;;;;;9.40;6.30;;;27.30;99.90;;;;;;5002927;28;20153;-43
2023/08/26 12:45:48;;;;;;;10.63;6.15;;;27.20;99.90;;;;;;5007175;28;20049;-42
2023/08/26 12:48:18;;;;;;;9.52;6.13;;;27.10;99.90;;;;;;5009531;28;20042;-43
2023/08/26 12:50:48;;;;;;;9.52;6.20;;;27.00;99.90;;;;;;5008318;28;20052;-40